Time;durP1;ratioP1;P1;durP2;ratioP2;P2;SDS_P1;SDS_P2;PMS_P1;PMS_P2;Temp;Humidity;BMP_temperature;BMP_pressure;BME280_temperature;BME280_humidity;BME280_pressure;Samples;Min_cycle;Max_cycle;Signal;HPM_P1;HPM_P2
2024/01/09 00:02:09;;;;;;;19.27;9.18;;;;;-5.10;99437.00;;;;5071597;28;20036;-66
2024/01/09 00:04:35;;;;;;;15.52;8.85;;;;;-5.10;99436.00;;;;5070065;28;20048;-65
2024/01/09 00:07:02;;;;;;;16.42;8.77;;;;;-5.00;99434.00;;;;5071875;28;20478;-66
2024/01/09 00:09:29;;;;;;;16.15;9.38;;;;;-5.00;99432.00;;;;5070279;28;20051;-67
2024/01/09 00:11:55;;;;;;;18.67;8.48;;;;;-5.00;99437.00;;;;5070389;28;20079;-66
2024/01/09 00:14:22;;;;;;;17.00;9.25;;;;;-5.00;99428.00;;;;5069859;28;20064;-65
2024/01/09 00:16:48;;;;;;;20.17;9.80;;;;;-5.00;99438.00;;;;5071682;28;20051;-66
2024/01/09 00:19:16;;;;;;;16.77;9.25;;;;;-5.00;99440.00;;;;5053844;28;20485;-67
2024/01/09 00:21:46;;;;;;;17.88;9.75;;;;;-5.10;99439.00;;;;5071578;28;20052;-65
2024/01/09 00:24:12;;;;;;;16.20;9.57;;;;;-5.00;99432.00;;;;5069436;28;20505;-65
2024/01/09 00:26:40;;;;;;;18.83;9.40;;;;;-5.10;99439.00;;;;5071507;28;20044;-65
2024/01/09 00:29:07;;;;;;;18.20;9.15;;;;;-5.10;99434.00;;;;5070226;28;20072;-66
2024/01/09 00:31:33;;;;;;;18.42;9.30;;;;;-5.00;99443.00;;;;5071766;28;20044;-68
2024/01/09 00:34:00;;;;;;;15.80;7.90;;;;;-5.00;99438.00;;;;5070935;28;20513;-65
2024/01/09 00:36:27;;;;;;;19.15;9.40;;;;;-5.20;99436.00;;;;5070237;28;20094;-65
2024/01/09 00:38:54;;;;;;;15.80;8.55;;;;;-5.20;99428.00;;;;5069927;28;20135;-66
2024/01/09 00:41:20;;;;;;;18.02;9.27;;;;;-5.20;99436.00;;;;5070071;28;20052;-65
2024/01/09 00:43:47;;;;;;;18.25;9.68;;;;;-5.20;99443.00;;;;5070769;28;20052;-66
2024/01/09 00:46:14;;;;;;;17.50;8.75;;;;;-5.20;99433.00;;;;5069980;28;20087;-67
2024/01/09 00:48:40;;;;;;;19.67;9.43;;;;;-5.20;99439.00;;;;5071164;28;20151;-66
2024/01/09 00:51:07;;;;;;;14.55;8.70;;;;;-5.20;99438.00;;;;5069990;28;20464;-66
2024/01/09 00:53:33;;;;;;;17.02;9.48;;;;;-5.30;99447.00;;;;5070677;28;20507;-65
2024/01/09 00:56:00;;;;;;;14.55;7.68;;;;;-5.20;99452.00;;;;5071001;28;20036;-67
2024/01/09 00:58:27;;;;;;;16.67;8.73;;;;;-5.20;99447.00;;;;5072861;28;20143;-66
2024/01/09 01:00:53;;;;;;;17.60;9.00;;;;;-5.30;99444.00;;;;5074668;28;20049;-66
2024/01/09 01:03:20;;;;;;;16.60;9.00;;;;;-5.30;99440.00;;;;5074585;28;20493;-68
2024/01/09 01:05:46;;;;;;;15.60;8.40;;;;;-5.30;99445.00;;;;5074221;28;20512;-67
2024/01/09 01:08:13;;;;;;;18.75;9.98;;;;;-5.40;99446.00;;;;5074570;28;20037;-66
2024/01/09 01:10:39;;;;;;;15.95;8.45;;;;;-5.30;99454.00;;;;5073182;28;20048;-66
2024/01/09 01:13:06;;;;;;;20.73;9.48;;;;;-5.40;99459.00;;;;5056591;28;20124;-65
2024/01/09 01:15:33;;;;;;;17.83;9.05;;;;;-5.40;99454.00;;;;5073963;28;20094;-67
2024/01/09 01:17:59;;;;;;;16.42;9.02;;;;;-5.30;99459.00;;;;5074557;28;20044;-65
2024/01/09 01:20:26;;;;;;;20.13;9.43;;;;;-5.30;99462.00;;;;5074551;28;20036;-65
2024/01/09 01:22:53;;;;;;;17.92;9.32;;;;;-5.30;99450.00;;;;5073370;28;20164;-66
2024/01/09 01:25:19;;;;;;;16.17;8.95;;;;;-5.30;99458.00;;;;5074124;28;20040;-65
2024/01/09 01:27:46;;;;;;;17.98;8.98;;;;;-5.30;99453.00;;;;5074675;28;20062;-65
2024/01/09 01:30:13;;;;;;;14.50;8.40;;;;;-5.40;99455.00;;;;5074723;28;20119;-65
2024/01/09 01:32:39;;;;;;;14.90;8.45;;;;;-5.40;99456.00;;;;5072996;28;20045;-65
2024/01/09 01:35:06;;;;;;;15.15;8.45;;;;;-5.30;99445.00;;;;5074087;28;20051;-65
2024/01/09 01:37:33;;;;;;;15.35;8.18;;;;;-5.40;99449.00;;;;5072957;28;20058;-65
2024/01/09 01:39:59;;;;;;;18.58;9.63;;;;;-5.30;99446.00;;;;5074522;28;20050;-67
2024/01/09 01:42:26;;;;;;;20.83;8.45;;;;;-5.40;99450.00;;;;5078305;28;20045;-68
2024/01/09 01:44:52;;;;;;;18.33;8.98;;;;;-5.50;99449.00;;;;5092728;28;20044;-67
2024/01/09 01:47:19;;;;;;;15.00;8.15;;;;;-5.50;99447.00;;;;5086216;28;20048;-66
2024/01/09 01:49:46;;;;;;;16.13;8.10;;;;;-5.50;99456.00;;;;5093079;28;20052;-66
2024/01/09 01:52:13;;;;;;;13.77;9.00;;;;;-5.50;99444.00;;;;5093128;28;20048;-66
2024/01/09 01:54:41;;;;;;;18.65;8.98;;;;;-5.40;99449.00;;;;5092560;28;20113;-68
2024/01/09 01:57:09;;;;;;;18.15;8.77;;;;;-5.40;99441.00;;;;5092650;28;20071;-67
2024/01/09 01:59:40;;;;;;;16.48;8.88;;;;;-5.50;99442.00;;;;5075267;28;20059;-66
2024/01/09 02:02:07;;;;;;;16.08;8.60;;;;;-5.50;99439.00;;;;5073783;28;20052;-66
2024/01/09 02:04:35;;;;;;;15.07;8.52;;;;;-5.40;99445.00;;;;5071823;28;20071;-64
2024/01/09 02:07:01;;;;;;;15.82;8.52;;;;;-5.50;99449.00;;;;5072245;28;20504;-65
2024/01/09 02:09:29;;;;;;;19.25;9.55;;;;;-5.50;99432.00;;;;5071952;28;20102;-67
2024/01/09 02:11:56;;;;;;;17.88;9.60;;;;;-5.50;99441.00;;;;5073389;28;20046;-65
2024/01/09 02:14:22;;;;;;;12.23;7.75;;;;;-5.50;99436.00;;;;5071699;28;20040;-66
2024/01/09 02:16:49;;;;;;;15.15;7.03;;;;;-5.50;99444.00;;;;5072199;28;20044;-65
2024/01/09 02:19:16;;;;;;;17.05;8.98;;;;;-5.50;99445.00;;;;5072030;28;20040;-65
2024/01/09 02:21:43;;;;;;;17.73;8.45;;;;;-5.50;99438.00;;;;5073367;28;20033;-67
2024/01/09 02:24:09;;;;;;;15.25;9.30;;;;;-5.50;99432.00;;;;5072312;28;20047;-66
2024/01/09 02:26:44;;;;;;;16.73;8.93;;;;;-5.50;99436.00;;;;5073097;28;20052;-65
2024/01/09 02:29:32;;;;;;;19.23;8.48;;;;;-5.50;99442.00;;;;5072228;28;20048;-65
2024/01/09 02:32:00;;;;;;;15.63;7.60;;;;;-5.50;99434.00;;;;5072947;28;20044;-66
2024/01/09 02:34:28;;;;;;;20.73;8.02;;;;;-5.50;99435.00;;;;5071303;28;20048;-65
2024/01/09 02:36:55;;;;;;;15.27;7.90;;;;;-5.50;99423.00;;;;5073149;28;20087;-67
2024/01/09 02:39:22;;;;;;;14.63;8.60;;;;;-5.50;99426.00;;;;5072683;28;20117;-67
2024/01/09 02:41:48;;;;;;;16.35;9.05;;;;;-5.50;99433.00;;;;5071469;28;20051;-67
2024/01/09 02:44:16;;;;;;;18.35;9.93;;;;;-5.50;99427.00;;;;5072160;28;20432;-67
2024/01/09 02:46:42;;;;;;;16.98;8.23;;;;;-5.50;99431.00;;;;5072646;28;20520;-67
2024/01/09 02:49:11;;;;;;;15.98;8.32;;;;;-5.50;99423.00;;;;5072671;28;20040;-67
2024/01/09 02:51:37;;;;;;;18.25;8.70;;;;;-5.60;99416.00;;;;5072769;28;20044;-66
2024/01/09 02:54:04;;;;;;;17.73;8.90;;;;;-5.60;99427.00;;;;5071870;28;20044;-67
2024/01/09 02:56:32;;;;;;;17.05;8.98;;;;;-5.60;99421.00;;;;5072263;28;20072;-67
2024/01/09 02:58:59;;;;;;;16.98;8.20;;;;;-5.50;99413.00;;;;5072413;28;20075;-67
2024/01/09 03:01:26;;;;;;;14.18;8.63;;;;;-5.60;99411.00;;;;5071070;28;20139;-66
2024/01/09 03:03:52;;;;;;;13.23;7.82;;;;;-5.60;99402.00;;;;5071723;28;20043;-67
2024/01/09 03:06:19;;;;;;;14.15;7.68;;;;;-5.60;99412.00;;;;5072375;28;20106;-67
2024/01/09 03:08:48;;;;;;;18.10;9.13;;;;;-5.50;99403.00;;;;5070941;28;20052;-67
2024/01/09 03:11:15;;;;;;;17.27;9.35;;;;;-5.60;99411.00;;;;5070969;28;20132;-67
2024/01/09 03:13:42;;;;;;;16.30;8.50;;;;;-5.60;99402.00;;;;5071740;28;20561;-67
2024/01/09 03:16:12;;;;;;;19.27;8.93;;;;;-5.60;99407.00;;;;5072172;28;20549;-67
2024/01/09 03:18:43;;;;;;;15.93;8.65;;;;;-5.60;99410.00;;;;5072224;28;20040;-67
2024/01/09 03:21:10;;;;;;;16.55;8.80;;;;;-5.60;99403.00;;;;5070338;28;20051;-67
2024/01/09 03:23:37;;;;;;;13.27;7.38;;;;;-5.60;99411.00;;;;5071440;28;20058;-67
2024/01/09 03:26:04;;;;;;;16.90;7.95;;;;;-5.60;99414.00;;;;5072101;28;20120;-67
2024/01/09 03:28:30;;;;;;;17.92;8.73;;;;;-5.60;99413.00;;;;5071167;28;20044;-66
2024/01/09 03:30:57;;;;;;;13.23;8.07;;;;;-5.60;99405.00;;;;5072074;28;20512;-67
2024/01/09 03:33:24;;;;;;;14.55;7.82;;;;;-5.70;99397.00;;;;5070526;28;20558;-67
2024/01/09 03:35:50;;;;;;;15.93;8.70;;;;;-5.70;99403.00;;;;5070971;28;20052;-67
2024/01/09 03:38:17;;;;;;;15.05;8.32;;;;;-5.60;99415.00;;;;5072041;28;20076;-66
2024/01/09 03:40:44;;;;;;;14.75;8.30;;;;;-5.70;99405.00;;;;5072063;28;20049;-66
2024/01/09 03:43:10;;;;;;;15.52;8.73;;;;;-5.60;99409.00;;;;5071153;28;20037;-67
2024/01/09 03:45:37;;;;;;;15.35;8.38;;;;;-5.60;99407.00;;;;5070116;28;20110;-66
2024/01/09 03:48:04;;;;;;;15.18;7.80;;;;;-5.60;99415.00;;;;5072265;28;20045;-67
2024/01/09 03:50:30;;;;;;;17.42;8.23;;;;;-5.60;99411.00;;;;5071224;28;20044;-67
2024/01/09 03:52:57;;;;;;;16.38;8.27;;;;;-5.60;99408.00;;;;5070874;28;20052;-65
2024/01/09 03:55:25;;;;;;;13.70;7.75;;;;;-5.60;99403.00;;;;5071046;28;20041;-65
2024/01/09 03:57:51;;;;;;;16.33;7.90;;;;;-5.50;99405.00;;;;5054386;28;20498;-66
2024/01/09 04:00:18;;;;;;;14.80;7.55;;;;;-5.60;99399.00;;;;5072323;28;20048;-66
2024/01/09 04:02:45;;;;;;;13.98;8.48;;;;;-5.60;99395.00;;;;5071124;28;20135;-65
2024/01/09 04:05:11;;;;;;;14.70;7.75;;;;;-5.60;99401.00;;;;5071355;28;20051;-65
2024/01/09 04:07:38;;;;;;;17.88;8.00;;;;;-5.60;99399.00;;;;5070986;28;20396;-65
2024/01/09 04:10:05;;;;;;;17.30;8.68;;;;;-5.60;99387.00;;;;5072139;28;20047;-65
2024/01/09 04:12:31;;;;;;;18.23;8.80;;;;;-5.60;99391.00;;;;5054284;28;20044;-65
2024/01/09 04:14:58;;;;;;;16.27;8.40;;;;;-5.60;99401.00;;;;5053741;28;20110;-66
2024/01/09 04:17:25;;;;;;;13.15;7.55;;;;;-5.60;99395.00;;;;5071604;28;20044;-66
2024/01/09 04:19:51;;;;;;;16.10;7.72;;;;;-5.70;99390.00;;;;5053852;28;20094;-65
2024/01/09 04:22:18;;;;;;;16.98;7.50;;;;;-5.70;99391.00;;;;5070303;28;20156;-67
2024/01/09 04:24:45;;;;;;;15.70;8.10;;;;;-5.70;99397.00;;;;5070976;28;20551;-66
2024/01/09 04:27:11;;;;;;;20.23;10.20;;;;;-5.70;99391.00;;;;5071744;28;20063;-66
2024/01/09 04:29:38;;;;;;;13.43;8.15;;;;;-5.70;99389.00;;;;5071615;28;20036;-65
2024/01/09 04:32:04;;;;;;;14.13;7.97;;;;;-5.70;99405.00;;;;5074041;28;20048;-66
2024/01/09 04:34:31;;;;;;;15.90;7.50;;;;;-5.60;99399.00;;;;5074506;28;20040;-66
2024/01/09 04:36:57;;;;;;;15.52;7.82;;;;;-5.60;99402.00;;;;5073803;28;20469;-65
2024/01/09 04:39:24;;;;;;;15.48;7.55;;;;;-5.60;99398.00;;;;5075115;28;20131;-65
2024/01/09 04:41:50;;;;;;;18.92;9.10;;;;;-5.70;99396.00;;;;5075100;28;20043;-66
2024/01/09 04:44:17;;;;;;;17.33;8.65;;;;;-5.70;99388.00;;;;5073839;28;20036;-66
2024/01/09 04:46:44;;;;;;;15.68;8.30;;;;;-5.60;99391.00;;;;5074479;28;20064;-66
2024/01/09 04:49:10;;;;;;;14.88;7.80;;;;;-5.70;99405.00;;;;5057251;28;20040;-66
2024/01/09 04:51:37;;;;;;;14.45;7.47;;;;;-5.60;99398.00;;;;5074918;28;20056;-65
2024/01/09 04:54:04;;;;;;;16.90;7.90;;;;;-5.60;99396.00;;;;5073194;28;20166;-65
2024/01/09 04:56:30;;;;;;;15.77;8.13;;;;;-5.70;99403.00;;;;5073745;28;20045;-65
2024/01/09 04:58:57;;;;;;;16.23;8.50;;;;;-5.70;99391.00;;;;5074952;28;20475;-67
2024/01/09 05:01:23;;;;;;;15.02;7.35;;;;;-5.70;99401.00;;;;5075184;28;20123;-65
2024/01/09 05:03:50;;;;;;;13.45;7.90;;;;;-5.70;99386.00;;;;5074221;28;20043;-64
2024/01/09 05:06:17;;;;;;;30.15;15.13;;;;;-5.70;99400.00;;;;5073563;28;20102;-65
2024/01/09 05:08:45;;;;;;;16.08;8.82;;;;;-5.70;99398.00;;;;5074855;28;20493;-64
2024/01/09 05:11:12;;;;;;;17.27;8.10;;;;;-5.70;99395.00;;;;5073319;28;20534;-65
2024/01/09 05:13:42;;;;;;;15.95;8.10;;;;;-5.70;99394.00;;;;5074061;28;20048;-66
2024/01/09 05:16:08;;;;;;;13.77;7.60;;;;;-5.70;99394.00;;;;5073086;28;20106;-65
2024/01/09 05:18:35;;;;;;;14.15;8.00;;;;;-5.70;99388.00;;;;5074288;28;20075;-65
2024/01/09 05:21:02;;;;;;;15.07;7.93;;;;;-5.70;99391.00;;;;5073086;28;20045;-66
2024/01/09 05:23:29;;;;;;;14.55;8.02;;;;;-5.80;99384.00;;;;5072519;28;20125;-65
2024/01/09 05:25:55;;;;;;;18.02;8.68;;;;;-5.80;99394.00;;;;5074496;28;20094;-65
2024/01/09 05:28:22;;;;;;;17.30;8.55;;;;;-5.70;99395.00;;;;5073362;28;20409;-66
2024/01/09 05:30:49;;;;;;;14.98;8.52;;;;;-5.70;99394.00;;;;5074698;28;20102;-65
2024/01/09 05:33:15;;;;;;;13.43;8.02;;;;;-5.60;99404.00;;;;5073997;28;20072;-66
2024/01/09 05:35:42;;;;;;;19.30;8.32;;;;;-5.60;99411.00;;;;5074014;28;20125;-67
2024/01/09 05:38:09;;;;;;;14.95;7.65;;;;;-5.60;99409.00;;;;5072976;28;20048;-66
2024/01/09 05:40:44;;;;;;;16.50;8.77;;;;;-5.60;99400.00;;;;5073910;28;20048;-65
2024/01/09 05:43:10;;;;;;;15.13;8.48;;;;;-5.60;99399.00;;;;5072307;28;20386;-66
2024/01/09 05:45:37;;;;;;;17.98;8.60;;;;;-5.60;99400.00;;;;5073349;28;20127;-66
2024/01/09 05:48:04;;;;;;;15.38;7.88;;;;;-5.60;99407.00;;;;5072798;28;20052;-65
2024/01/09 05:50:31;;;;;;;16.58;7.93;;;;;-5.60;99410.00;;;;5074065;28;20050;-66
2024/01/09 05:52:57;;;;;;;16.42;8.98;;;;;-5.60;99411.00;;;;5055958;28;20136;-65
2024/01/09 05:55:24;;;;;;;17.40;8.30;;;;;-5.60;99402.00;;;;5073000;28;20607;-65
2024/01/09 05:57:51;;;;;;;14.88;7.93;;;;;-5.60;99406.00;;;;5073884;28;20045;-66
2024/01/09 06:00:18;;;;;;;15.85;8.20;;;;;-5.60;99401.00;;;;5072564;28;20048;-65
2024/01/09 06:02:44;;;;;;;18.65;8.77;;;;;-5.50;99401.00;;;;5073476;28;20445;-65
2024/01/09 06:05:11;;;;;;;16.83;9.00;;;;;-5.60;99392.00;;;;5073239;28;20382;-65
2024/01/09 06:07:38;;;;;;;15.13;8.02;;;;;-5.60;99384.00;;;;5073608;28;20127;-65
2024/01/09 06:10:05;;;;;;;18.40;9.18;;;;;-5.70;99381.00;;;;5072110;28;20123;-66
2024/01/09 06:12:31;;;;;;;14.45;7.32;;;;;-5.80;99388.00;;;;5073531;28;20043;-66
2024/01/09 06:14:58;;;;;;;14.48;7.90;;;;;-5.80;99390.00;;;;5072600;28;20041;-66
2024/01/09 06:17:25;;;;;;;16.40;8.38;;;;;-5.90;99403.00;;;;5072186;28;20048;-65
2024/01/09 06:19:52;;;;;;;14.10;7.75;;;;;-5.90;99402.00;;;;5073325;28;20037;-67
2024/01/09 06:22:19;;;;;;;15.88;7.72;;;;;-5.90;99410.00;;;;5072234;28;20378;-65
2024/01/09 06:24:45;;;;;;;14.95;8.73;;;;;-5.90;99412.00;;;;5071455;28;20127;-67
2024/01/09 06:27:12;;;;;;;13.85;8.38;;;;;-5.90;99403.00;;;;5072029;28;20386;-66
2024/01/09 06:29:38;;;;;;;13.93;7.32;;;;;-5.90;99404.00;;;;5071664;28;20045;-66
2024/01/09 06:32:05;;;;;;;14.00;8.18;;;;;-5.90;99405.00;;;;5072489;28;20044;-64
2024/01/09 06:34:34;;;;;;;13.13;7.25;;;;;-5.90;99396.00;;;;5073657;28;20495;-65
2024/01/09 06:37:00;;;;;;;18.20;8.88;;;;;-5.90;99387.00;;;;5073258;28;20127;-67
2024/01/09 06:39:27;;;;;;;16.58;7.90;;;;;-5.90;99392.00;;;;5073400;28;20040;-67
2024/01/09 06:41:54;;;;;;;16.55;7.82;;;;;-5.80;99408.00;;;;5055284;28;20052;-67
2024/01/09 06:44:20;;;;;;;14.52;7.45;;;;;-5.90;99401.00;;;;5071067;28;20049;-67
2024/01/09 06:46:47;;;;;;;16.77;8.43;;;;;-5.80;99396.00;;;;5071834;28;20127;-67
2024/01/09 06:49:14;;;;;;;18.02;7.10;;;;;-5.80;99404.00;;;;5072659;28;20580;-67
2024/01/09 06:51:40;;;;;;;17.05;7.80;;;;;-5.90;99401.00;;;;5072850;28;20041;-66
2024/01/09 06:54:07;;;;;;;15.25;8.48;;;;;-5.90;99397.00;;;;5070073;28;20131;-66
2024/01/09 06:56:33;;;;;;;23.58;10.05;;;;;-5.90;99400.00;;;;5072236;28;20409;-67
2024/01/09 06:59:00;;;;;;;21.90;10.02;;;;;-5.90;99395.00;;;;5072671;28;20040;-67
2024/01/09 07:01:26;;;;;;;17.40;8.82;;;;;-5.90;99407.00;;;;5072615;28;20056;-67
2024/01/09 07:03:53;;;;;;;14.82;8.02;;;;;-5.90;99412.00;;;;5071880;28;20126;-67
2024/01/09 07:06:20;;;;;;;21.85;8.50;;;;;-5.80;99398.00;;;;5071208;28;20110;-66
2024/01/09 07:08:47;;;;;;;17.05;8.57;;;;;-5.80;99409.00;;;;5072433;28;20136;-65
2024/01/09 07:11:14;;;;;;;14.68;8.02;;;;;-5.80;99398.00;;;;5072311;28;20052;-67
2024/01/09 07:13:40;;;;;;;17.42;8.15;;;;;-5.80;99402.00;;;;5071701;28;20054;-67
2024/01/09 07:16:07;;;;;;;16.85;8.57;;;;;-5.80;99407.00;;;;5070776;28;20048;-67
2024/01/09 07:18:33;;;;;;;16.90;8.77;;;;;-5.80;99410.00;;;;5054506;28;20048;-66
2024/01/09 07:21:00;;;;;;;14.57;8.70;;;;;-5.80;99410.00;;;;5072341;28;20054;-65
2024/01/09 07:23:27;;;;;;;16.20;8.80;;;;;-5.70;99417.00;;;;5070408;28;20084;-64
2024/01/09 07:25:53;;;;;;;18.40;9.50;;;;;-5.70;99422.00;;;;5071099;28;20048;-65
2024/01/09 07:28:20;;;;;;;15.07;8.50;;;;;-5.60;99428.00;;;;5070878;28;20048;-65
2024/01/09 07:30:47;;;;;;;17.75;8.40;;;;;-5.60;99425.00;;;;5071170;28;20044;-65
2024/01/09 07:33:15;;;;;;;15.35;8.32;;;;;-5.60;99423.00;;;;5072792;28;20493;-64
2024/01/09 07:35:41;;;;;;;14.73;8.73;;;;;-5.60;99433.00;;;;5071909;28;20048;-67
2024/01/09 07:38:08;;;;;;;15.93;8.68;;;;;-5.60;99430.00;;;;5050943;28;20044;-66
2024/01/09 07:40:35;;;;;;;17.52;8.35;;;;;-5.50;99423.00;;;;5051991;28;20770;-64
2024/01/09 07:43:01;;;;;;;16.98;8.98;;;;;-5.60;99428.00;;;;5050824;28;20051;-65
2024/01/09 07:45:30;;;;;;;16.88;8.73;;;;;-5.60;99431.00;;;;5051573;28;20090;-67
2024/01/09 07:47:58;;;;;;;18.17;9.30;;;;;-5.70;99428.00;;;;5050716;28;20076;-65
2024/01/09 07:50:26;;;;;;;14.65;8.05;;;;;-5.60;99436.00;;;;5052148;28;20516;-65
2024/01/09 07:52:53;;;;;;;21.20;9.38;;;;;-5.60;99434.00;;;;5051972;28;20044;-66
2024/01/09 07:55:19;;;;;;;16.08;8.57;;;;;-5.60;99429.00;;;;5051144;28;20041;-65
2024/01/09 07:57:46;;;;;;;20.80;9.15;;;;;-5.60;99423.00;;;;5050585;28;20061;-67
2024/01/09 08:00:13;;;;;;;17.92;9.77;;;;;-5.60;99427.00;;;;5051701;28;20048;-66
2024/01/09 08:02:40;;;;;;;18.13;8.75;;;;;-5.60;99436.00;;;;5051884;28;20091;-66
2024/01/09 08:05:07;;;;;;;14.10;7.78;;;;;-5.60;99431.00;;;;5051306;28;20390;-66
2024/01/09 08:07:33;;;;;;;20.50;9.05;;;;;-5.50;99433.00;;;;5055196;28;20037;-66
2024/01/09 08:10:00;;;;;;;13.68;8.10;;;;;-5.50;99432.00;;;;5054529;28;20405;-66
2024/01/09 08:12:26;;;;;;;15.88;8.20;;;;;-5.50;99423.00;;;;5055942;28;20045;-66
2024/01/09 08:14:53;;;;;;;18.73;9.15;;;;;-5.40;99434.00;;;;5054956;28;20041;-66
2024/01/09 08:17:20;;;;;;;16.85;8.75;;;;;-5.30;99433.00;;;;5054489;28;20120;-66
2024/01/09 08:19:47;;;;;;;14.20;7.47;;;;;-5.30;99428.00;;;;5055554;28;20049;-66
2024/01/09 08:22:13;;;;;;;16.85;8.27;;;;;-5.20;99424.00;;;;5055567;28;20067;-66
2024/01/09 08:24:40;;;;;;;18.48;8.35;;;;;-5.20;99425.00;;;;5053755;28;20409;-65
2024/01/09 08:27:06;;;;;;;13.02;7.85;;;;;-5.20;99426.00;;;;5055412;28;20045;-65
2024/01/09 08:29:33;;;;;;;15.85;7.70;;;;;-5.10;99425.00;;;;5054110;28;20053;-67
2024/01/09 08:32:00;;;;;;;13.13;6.93;;;;;-5.10;99431.00;;;;5055309;28;20098;-66
2024/01/09 08:34:26;;;;;;;15.13;7.95;;;;;-5.20;99433.00;;;;5053438;28;20395;-66
2024/01/09 08:36:54;;;;;;;16.20;8.43;;;;;-5.10;99429.00;;;;5055460;28;20041;-67
2024/01/09 08:39:20;;;;;;;14.20;7.90;;;;;-5.00;99431.00;;;;5055294;28;20406;-65
2024/01/09 08:41:47;;;;;;;12.73;6.90;;;;;-4.90;99423.00;;;;5055090;28;20045;-65
2024/01/09 08:44:14;;;;;;;17.00;8.32;;;;;-4.80;99435.00;;;;5053344;28;20063;-65
2024/01/09 08:46:41;;;;;;;14.43;8.55;;;;;-4.70;99428.00;;;;5055395;28;20099;-65
2024/01/09 08:49:08;;;;;;;13.85;7.63;;;;;-4.70;99434.00;;;;5054912;28;20041;-68
2024/01/09 08:51:35;;;;;;;16.13;8.43;;;;;-4.70;99431.00;;;;5054889;28;20051;-66
2024/01/09 08:54:02;;;;;;;14.70;7.05;;;;;-4.60;99438.00;;;;5053088;28;20045;-66
2024/01/09 08:56:29;;;;;;;13.65;7.22;;;;;-4.60;99434.00;;;;5054867;28;20063;-65
2024/01/09 08:58:56;;;;;;;16.95;6.63;;;;;-4.50;99426.00;;;;5053622;28;20049;-65
2024/01/09 09:01:22;;;;;;;14.25;7.55;;;;;-4.60;99438.00;;;;5053642;28;20080;-66
2024/01/09 09:03:49;;;;;;;14.68;7.78;;;;;-4.60;99433.00;;;;5054340;28;20107;-67
2024/01/09 09:06:16;;;;;;;12.77;6.80;;;;;-4.50;99438.00;;;;5053277;28;20111;-66
2024/01/09 09:08:44;;;;;;;18.15;6.95;;;;;-4.60;99432.00;;;;5053822;28;20115;-67
2024/01/09 09:11:15;;;;;;;14.32;7.80;;;;;-4.60;99423.00;;;;5053295;28;20044;-66
2024/01/09 09:13:42;;;;;;;10.57;6.15;;;;;-4.50;99429.00;;;;5052684;28;20052;-67
2024/01/09 09:16:09;;;;;;;15.77;7.30;;;;;-4.40;99419.00;;;;5053598;28;20041;-67
2024/01/09 09:18:36;;;;;;;14.27;7.65;;;;;-4.40;99431.00;;;;5068979;28;20510;-67
2024/01/09 09:21:03;;;;;;;15.13;7.55;;;;;-4.40;99433.00;;;;5053413;28;20128;-67
2024/01/09 09:23:33;;;;;;;15.77;7.75;;;;;-4.40;99431.00;;;;5069175;28;20103;-68
2024/01/09 09:26:01;;;;;;;19.75;7.18;;;;;-4.30;99430.00;;;;5053124;28;20517;-67
2024/01/09 09:28:27;;;;;;;13.40;7.45;;;;;-4.20;99433.00;;;;5054218;28;20136;-67
2024/01/09 09:31:06;;;;;;;13.85;7.38;;;;;-4.00;99442.00;;;;5053130;28;20076;-68
2024/01/09 09:33:33;;;;;;;16.85;7.32;;;;;-4.00;99444.00;;;;5052376;28;20041;-66
2024/01/09 09:36:05;;;;;;;9.68;5.85;;;;;-3.90;99434.00;;;;5054158;28;20041;-67
2024/01/09 09:38:33;;;;;;;13.38;6.93;;;;;-3.90;99438.00;;;;5053157;28;20454;-67
2024/01/09 09:41:06;;;;;;;10.52;6.07;;;;;-3.80;99445.00;;;;5052943;28;20036;-65
2024/01/09 09:43:37;;;;;;;15.60;8.00;;;;;-3.70;99435.00;;;;5052316;28;20049;-66
2024/01/09 09:46:08;;;;;;;12.10;6.82;;;;;-3.70;99439.00;;;;5053058;28;20064;-63
2024/01/09 09:48:38;;;;;;;15.82;7.25;;;;;-3.50;99446.00;;;;5054052;28;20048;-66
2024/01/09 09:51:05;;;;;;;15.13;7.25;;;;;-3.40;99444.00;;;;5052679;28;20045;-66
2024/01/09 09:53:32;;;;;;;10.50;6.55;;;;;-3.40;99444.00;;;;5052250;28;20041;-64
2024/01/09 09:55:59;;;;;;;18.58;8.30;;;;;-3.30;99436.00;;;;5053563;28;20056;-66
2024/01/09 09:58:27;;;;;;;13.55;6.18;;;;;-3.30;99440.00;;;;5053840;28;20068;-66
2024/01/09 10:00:56;;;;;;;12.48;6.75;;;;;-3.30;99437.00;;;;5052583;28;20128;-66
2024/01/09 10:03:30;;;;;;;15.40;6.85;;;;;-3.30;99439.00;;;;5052189;28;20037;-68
2024/01/09 10:05:59;;;;;;;15.73;7.20;;;;;-3.20;99429.00;;;;5053685;28;20135;-65
2024/01/09 10:08:28;;;;;;;14.80;7.45;;;;;-3.10;99427.00;;;;5053444;28;20045;-65
2024/01/09 10:10:55;;;;;;;12.80;6.88;;;;;-2.90;99429.00;;;;5052520;28;20049;-65
2024/01/09 10:13:22;;;;;;;15.32;7.93;;;;;-2.80;99425.00;;;;5052455;28;20051;-67
2024/01/09 10:15:59;;;;;;;14.95;7.82;;;;;-2.70;99422.00;;;;5052369;28;20120;-67
2024/01/09 10:18:30;;;;;;;11.45;7.25;;;;;-2.60;99421.00;;;;5052637;28;20040;-64
2024/01/09 10:20:59;;;;;;;14.75;7.22;;;;;-2.60;99430.00;;;;5052060;28;20140;-67
2024/01/09 10:23:27;;;;;;;15.32;7.53;;;;;-2.40;99419.00;;;;5051574;28;20087;-67
2024/01/09 10:25:54;;;;;;;15.27;8.00;;;;;-2.30;99428.00;;;;5053141;28;20041;-67
2024/01/09 10:28:22;;;;;;;14.00;7.45;;;;;-2.30;99425.00;;;;5053352;28;20091;-64
2024/01/09 10:30:53;;;;;;;16.33;8.57;;;;;-2.20;99421.00;;;;5051852;28;20048;-66
2024/01/09 10:33:20;;;;;;;15.50;7.85;;;;;-2.10;99418.00;;;;5051901;28;20098;-67
2024/01/09 10:35:48;;;;;;;12.02;6.88;;;;;-2.10;99416.00;;;;5051710;28;20048;-64
2024/01/09 10:38:23;;;;;;;15.10;7.53;;;;;-2.20;99418.00;;;;5051690;28;20071;-65
2024/01/09 10:40:55;;;;;;;16.10;7.68;;;;;-2.10;99424.00;;;;5052911;28;20047;-64
2024/01/09 10:43:25;;;;;;;10.93;6.28;;;;;-2.00;99420.00;;;;5051742;28;20135;-69
2024/01/09 10:45:53;;;;;;;14.05;7.70;;;;;-1.80;99423.00;;;;5051627;28;20076;-64
2024/01/09 10:48:24;;;;;;;14.50;7.90;;;;;-1.70;99417.00;;;;5053006;28;20045;-64
2024/01/09 10:50:51;;;;;;;14.50;6.90;;;;;-1.80;99417.00;;;;5051406;28;20049;-63
2024/01/09 10:53:24;;;;;;;12.20;7.38;;;;;-1.90;99418.00;;;;5052775;28;20045;-64
2024/01/09 10:55:54;;;;;;;15.80;7.60;;;;;-1.80;99416.00;;;;5051254;28;20087;-64
2024/01/09 10:58:21;;;;;;;12.43;6.22;;;;;-1.70;99412.00;;;;5051130;28;20071;-63
2024/01/09 11:00:47;;;;;;;13.32;6.63;;;;;-1.70;99410.00;;;;5051597;28;20088;-66
2024/01/09 11:03:14;;;;;;;9.65;6.13;;;;;-1.70;99402.00;;;;5052548;28;20450;-63
2024/01/09 11:05:41;;;;;;;11.98;6.68;;;;;-1.70;99410.00;;;;5050924;28;20089;-64
2024/01/09 11:08:12;;;;;;;13.88;7.40;;;;;-1.70;99407.00;;;;5051334;28;20055;-64
2024/01/09 11:10:40;;;;;;;12.25;6.78;;;;;-1.60;99400.00;;;;5051310;28;20536;-64
2024/01/09 11:13:09;;;;;;;12.02;6.95;;;;;-1.70;99404.00;;;;5051259;28;20041;-64
2024/01/09 11:15:44;;;;;;;14.32;6.78;;;;;-1.60;99403.00;;;;5052200;28;20051;-63
2024/01/09 11:18:14;;;;;;;12.32;6.55;;;;;-1.50;99381.00;;;;5052534;28;20041;-66
2024/01/09 11:20:41;;;;;;;12.23;7.07;;;;;-1.50;99392.00;;;;5050915;28;20087;-65
2024/01/09 11:23:14;;;;;;;14.50;7.97;;;;;-1.50;99394.00;;;;5050993;28;20045;-65
2024/01/09 11:25:41;;;;;;;13.38;7.50;;;;;-1.40;99386.00;;;;5050337;28;20474;-65
2024/01/09 11:28:37;;;;;;;14.52;7.53;;;;;-1.30;99393.00;;;;5050808;28;20494;-65
2024/01/09 11:31:07;;;;;;;27.10;12.10;;;;;-1.40;99378.00;;;;5034489;28;20067;-66
2024/01/09 11:33:41;;;;;;;17.42;9.10;;;;;-1.20;99391.00;;;;5051428;28;20120;-66
2024/01/09 11:36:09;;;;;;;;;;;;;-1.20;99382.00;;;;5052752;28;20095;-66
2024/01/09 11:38:37;;;;;;;14.93;7.22;;;;;-1.10;99377.00;;;;5052266;28;19925;-66
2024/01/09 11:41:05;;;;;;;14.32;7.82;;;;;-1.10;99374.00;;;;5050227;28;20091;-66
2024/01/09 11:43:58;;;;;;;13.82;6.65;;;;;-1.10;99368.00;;;;5050186;28;20052;-65
2024/01/09 11:46:26;;;;;;;12.57;6.85;;;;;-1.30;99369.00;;;;5043967;28;20052;-65
2024/01/09 11:48:54;;;;;;;13.20;6.85;;;;;-1.20;99375.00;;;;5050491;28;20059;-64
2024/01/09 11:51:21;;;;;;;14.23;7.72;;;;;-1.20;99369.00;;;;5051976;28;20516;-66
2024/01/09 11:53:49;;;;;;;14.93;7.25;;;;;-1.10;99355.00;;;;5050249;28;20053;-64
2024/01/09 11:56:17;;;;;;;13.13;8.50;;;;;-1.10;99363.00;;;;5050493;28;20083;-65
2024/01/09 11:58:47;;;;;;;13.23;7.57;;;;;-0.80;99357.00;;;;5050621;28;20148;-63
2024/01/09 12:01:14;;;;;;;11.10;6.75;;;;;-0.90;99358.00;;;;5051979;28;20053;-64
2024/01/09 12:03:40;;;;;;;14.18;8.15;;;;;-0.90;99357.00;;;;5051286;28;20136;-63
2024/01/09 12:06:07;;;;;;;13.23;7.15;;;;;-0.80;99351.00;;;;5050674;28;20059;-63
2024/01/09 12:08:34;;;;;;;14.00;8.52;;;;;-0.80;99343.00;;;;5050857;28;20049;-64
2024/01/09 12:11:02;;;;;;;15.70;7.38;;;;;-0.70;99361.00;;;;5050857;28;20083;-67